sensor_id;sensor_type;location;lat;lon;timestamp;P1;durP1;ratioP1;P2;durP2;ratioP2
19107;SDS011;9686;48.832;9.126;2022-07-25T00:02:14;10.13;;;9.13;;
19107;SDS011;9686;48.832;9.126;2022-07-25T00:04:40;9.47;;;8.57;;
19107;SDS011;9686;48.832;9.126;2022-07-25T00:07:05;10.53;;;9.43;;
19107;SDS011;9686;48.832;9.126;2022-07-25T00:09:31;11.20;;;9.67;;
19107;SDS011;9686;48.832;9.126;2022-07-25T00:11:56;10.37;;;9.33;;
19107;SDS011;9686;48.832;9.126;2022-07-25T00:14:21;10.00;;;9.00;;
19107;SDS011;9686;48.832;9.126;2022-07-25T00:16:46;10.47;;;9.47;;
19107;SDS011;9686;48.832;9.126;2022-07-25T00:19:12;10.47;;;9.57;;
19107;SDS011;9686;48.832;9.126;2022-07-25T00:21:37;10.93;;;9.77;;
19107;SDS011;9686;48.832;9.126;2022-07-25T00:24:03;11.10;;;9.90;;
19107;SDS011;9686;48.832;9.126;2022-07-25T00:26:28;10.40;;;9.40;;
19107;SDS011;9686;48.832;9.126;2022-07-25T00:28:53;11.33;;;10.27;;
19107;SDS011;9686;48.832;9.126;2022-07-25T00:31:19;10.40;;;9.40;;
19107;SDS011;9686;48.832;9.126;2022-07-25T00:33:44;10.70;;;9.70;;
19107;SDS011;9686;48.832;9.126;2022-07-25T00:36:09;10.87;;;9.77;;
19107;SDS011;9686;48.832;9.126;2022-07-25T00:38:35;11.60;;;10.40;;
19107;SDS011;9686;48.832;9.126;2022-07-25T00:41:01;11.37;;;10.27;;
19107;SDS011;9686;48.832;9.126;2022-07-25T00:43:27;12.30;;;9.90;;
19107;SDS011;9686;48.832;9.126;2022-07-25T00:45:52;11.47;;;9.47;;
19107;SDS011;9686;48.832;9.126;2022-07-25T00:48:18;11.00;;;10.00;;
19107;SDS011;9686;48.832;9.126;2022-07-25T00:50:43;11.27;;;9.93;;
19107;SDS011;9686;48.832;9.126;2022-07-25T00:53:08;10.57;;;9.57;;
19107;SDS011;9686;48.832;9.126;2022-07-25T00:55:34;10.60;;;9.50;;
19107;SDS011;9686;48.832;9.126;2022-07-25T00:57:59;13.77;;;9.93;;
19107;SDS011;9686;48.832;9.126;2022-07-25T01:00:24;11.80;;;10.67;;
19107;SDS011;9686;48.832;9.126;2022-07-25T01:02:50;10.93;;;9.83;;
19107;SDS011;9686;48.832;9.126;2022-07-25T01:05:16;10.67;;;9.60;;
19107;SDS011;9686;48.832;9.126;2022-07-25T01:07:41;11.33;;;10.23;;
19107;SDS011;9686;48.832;9.126;2022-07-25T01:10:07;10.73;;;9.73;;
19107;SDS011;9686;48.832;9.126;2022-07-25T01:12:43;11.53;;;10.00;;
19107;SDS011;9686;48.832;9.126;2022-07-25T01:15:12;10.27;;;9.27;;
19107;SDS011;9686;48.832;9.126;2022-07-25T01:17:37;11.40;;;10.30;;
19107;SDS011;9686;48.832;9.126;2022-07-25T01:20:03;11.10;;;9.73;;
19107;SDS011;9686;48.832;9.126;2022-07-25T01:22:28;11.13;;;9.97;;
19107;SDS011;9686;48.832;9.126;2022-07-25T01:24:53;10.73;;;9.63;;
19107;SDS011;9686;48.832;9.126;2022-07-25T01:27:19;12.10;;;10.13;;
19107;SDS011;9686;48.832;9.126;2022-07-25T01:29:44;12.10;;;10.30;;
19107;SDS011;9686;48.832;9.126;2022-07-25T01:32:10;11.50;;;10.30;;
19107;SDS011;9686;48.832;9.126;2022-07-25T01:34:36;11.13;;;10.03;;
19107;SDS011;9686;48.832;9.126;2022-07-25T01:37:01;11.03;;;10.03;;
19107;SDS011;9686;48.832;9.126;2022-07-25T01:39:26;10.90;;;9.80;;
19107;SDS011;9686;48.832;9.126;2022-07-25T01:41:52;11.70;;;10.60;;
19107;SDS011;9686;48.832;9.126;2022-07-25T01:44:17;11.50;;;10.37;;
19107;SDS011;9686;48.832;9.126;2022-07-25T01:46:42;10.70;;;9.60;;
19107;SDS011;9686;48.832;9.126;2022-07-25T01:49:08;10.50;;;9.47;;
19107;SDS011;9686;48.832;9.126;2022-07-25T01:51:33;11.27;;;10.17;;
19107;SDS011;9686;48.832;9.126;2022-07-25T01:53:58;11.07;;;10.07;;
19107;SDS011;9686;48.832;9.126;2022-07-25T01:56:24;11.10;;;9.90;;
19107;SDS011;9686;48.832;9.126;2022-07-25T01:58:49;10.87;;;9.87;;
19107;SDS011;9686;48.832;9.126;2022-07-25T02:01:14;10.60;;;9.57;;
19107;SDS011;9686;48.832;9.126;2022-07-25T02:03:40;10.90;;;9.90;;
19107;SDS011;9686;48.832;9.126;2022-07-25T02:06:06;10.77;;;9.77;;
19107;SDS011;9686;48.832;9.126;2022-07-25T02:08:32;11.03;;;10.03;;
19107;SDS011;9686;48.832;9.126;2022-07-25T02:10:58;10.80;;;9.80;;
19107;SDS011;9686;48.832;9.126;2022-07-25T02:13:24;10.63;;;9.57;;
19107;SDS011;9686;48.832;9.126;2022-07-25T02:15:50;11.23;;;10.07;;
19107;SDS011;9686;48.832;9.126;2022-07-25T02:18:16;11.33;;;10.17;;
19107;SDS011;9686;48.832;9.126;2022-07-25T02:20:41;11.57;;;10.37;;
19107;SDS011;9686;48.832;9.126;2022-07-25T02:23:07;11.43;;;10.23;;
19107;SDS011;9686;48.832;9.126;2022-07-25T02:25:32;11.50;;;10.17;;
19107;SDS011;9686;48.832;9.126;2022-07-25T02:27:58;11.17;;;10.17;;
19107;SDS011;9686;48.832;9.126;2022-07-25T02:30:23;11.60;;;10.20;;
19107;SDS011;9686;48.832;9.126;2022-07-25T02:32:49;11.03;;;10.00;;
19107;SDS011;9686;48.832;9.126;2022-07-25T02:35:15;12.23;;;11.03;;
19107;SDS011;9686;48.832;9.126;2022-07-25T02:37:40;11.00;;;9.90;;
19107;SDS011;9686;48.832;9.126;2022-07-25T02:40:06;12.97;;;10.53;;
19107;SDS011;9686;48.832;9.126;2022-07-25T02:42:32;10.90;;;9.80;;
19107;SDS011;9686;48.832;9.126;2022-07-25T02:44:57;10.60;;;9.23;;
19107;SDS011;9686;48.832;9.126;2022-07-25T02:47:22;10.27;;;9.17;;
19107;SDS011;9686;48.832;9.126;2022-07-25T02:49:48;11.10;;;10.00;;
19107;SDS011;9686;48.832;9.126;2022-07-25T02:52:13;12.80;;;9.73;;
19107;SDS011;9686;48.832;9.126;2022-07-25T02:54:38;12.23;;;9.63;;
19107;SDS011;9686;48.832;9.126;2022-07-25T02:57:04;11.20;;;10.07;;
19107;SDS011;9686;48.832;9.126;2022-07-25T02:59:29;10.97;;;9.87;;
19107;SDS011;9686;48.832;9.126;2022-07-25T03:01:54;11.53;;;10.30;;
19107;SDS011;9686;48.832;9.126;2022-07-25T03:04:20;11.23;;;10.23;;
19107;SDS011;9686;48.832;9.126;2022-07-25T03:06:45;11.97;;;9.80;;
19107;SDS011;9686;48.832;9.126;2022-07-25T03:09:10;10.70;;;9.50;;
19107;SDS011;9686;48.832;9.126;2022-07-25T03:11:36;10.67;;;9.43;;
19107;SDS011;9686;48.832;9.126;2022-07-25T03:14:01;12.40;;;11.10;;
19107;SDS011;9686;48.832;9.126;2022-07-25T03:16:27;11.47;;;10.37;;
19107;SDS011;9686;48.832;9.126;2022-07-25T03:18:53;11.10;;;10.10;;
19107;SDS011;9686;48.832;9.126;2022-07-25T03:21:18;10.47;;;9.43;;
19107;SDS011;9686;48.832;9.126;2022-07-25T03:23:43;10.97;;;9.97;;
19107;SDS011;9686;48.832;9.126;2022-07-25T03:26:09;11.73;;;10.53;;
19107;SDS011;9686;48.832;9.126;2022-07-25T03:28:34;11.43;;;10.27;;
19107;SDS011;9686;48.832;9.126;2022-07-25T03:31:00;11.50;;;10.23;;
19107;SDS011;9686;48.832;9.126;2022-07-25T03:33:26;11.40;;;10.23;;
19107;SDS011;9686;48.832;9.126;2022-07-25T03:35:51;10.67;;;9.67;;
19107;SDS011;9686;48.832;9.126;2022-07-25T03:38:17;11.40;;;10.30;;
19107;SDS011;9686;48.832;9.126;2022-07-25T03:40:42;11.27;;;10.17;;
19107;SDS011;9686;48.832;9.126;2022-07-25T03:43:08;11.50;;;10.40;;
19107;SDS011;9686;48.832;9.126;2022-07-25T03:45:33;11.33;;;10.23;;
19107;SDS011;9686;48.832;9.126;2022-07-25T03:47:58;12.93;;;10.40;;
19107;SDS011;9686;48.832;9.126;2022-07-25T03:50:24;11.77;;;10.37;;
19107;SDS011;9686;48.832;9.126;2022-07-25T03:52:49;12.87;;;10.63;;
19107;SDS011;9686;48.832;9.126;2022-07-25T03:55:14;10.80;;;9.70;;
19107;SDS011;9686;48.832;9.126;2022-07-25T03:57:39;11.43;;;10.37;;
19107;SDS011;9686;48.832;9.126;2022-07-25T04:00:06;11.50;;;10.30;;
19107;SDS011;9686;48.832;9.126;2022-07-25T04:02:33;11.27;;;10.20;;
19107;SDS011;9686;48.832;9.126;2022-07-25T04:04:59;12.73;;;10.27;;
19107;SDS011;9686;48.832;9.126;2022-07-25T04:07:24;11.87;;;10.03;;
19107;SDS011;9686;48.832;9.126;2022-07-25T04:09:49;10.80;;;9.77;;
19107;SDS011;9686;48.832;9.126;2022-07-25T04:12:15;10.13;;;9.20;;
19107;SDS011;9686;48.832;9.126;2022-07-25T04:14:40;10.70;;;9.63;;
19107;SDS011;9686;48.832;9.126;2022-07-25T04:17:05;11.50;;;10.30;;
19107;SDS011;9686;48.832;9.126;2022-07-25T04:19:31;11.10;;;10.10;;
19107;SDS011;9686;48.832;9.126;2022-07-25T04:21:56;11.63;;;10.00;;
19107;SDS011;9686;48.832;9.126;2022-07-25T04:24:22;10.93;;;9.80;;
19107;SDS011;9686;48.832;9.126;2022-07-25T04:26:47;10.87;;;9.67;;
19107;SDS011;9686;48.832;9.126;2022-07-25T04:29:12;10.77;;;9.67;;
19107;SDS011;9686;48.832;9.126;2022-07-25T04:31:38;9.90;;;8.43;;
19107;SDS011;9686;48.832;9.126;2022-07-25T04:34:03;11.97;;;10.80;;
19107;SDS011;9686;48.832;9.126;2022-07-25T04:36:28;11.00;;;9.33;;
19107;SDS011;9686;48.832;9.126;2022-07-25T04:38:54;10.17;;;9.13;;
19107;SDS011;9686;48.832;9.126;2022-07-25T04:41:19;10.73;;;9.73;;
19107;SDS011;9686;48.832;9.126;2022-07-25T04:43:44;10.37;;;9.37;;
19107;SDS011;9686;48.832;9.126;2022-07-25T04:46:10;11.20;;;10.03;;
19107;SDS011;9686;48.832;9.126;2022-07-25T04:48:35;10.70;;;9.60;;
19107;SDS011;9686;48.832;9.126;2022-07-25T04:51:00;10.43;;;9.40;;
19107;SDS011;9686;48.832;9.126;2022-07-25T04:53:26;10.70;;;9.60;;
19107;SDS011;9686;48.832;9.126;2022-07-25T04:55:51;9.87;;;8.97;;
19107;SDS011;9686;48.832;9.126;2022-07-25T04:58:17;9.97;;;9.07;;
19107;SDS011;9686;48.832;9.126;2022-07-25T05:00:43;10.93;;;9.90;;
19107;SDS011;9686;48.832;9.126;2022-07-25T05:03:08;10.53;;;9.40;;
19107;SDS011;9686;48.832;9.126;2022-07-25T05:05:34;11.80;;;9.83;;
19107;SDS011;9686;48.832;9.126;2022-07-25T05:07:59;11.13;;;9.73;;
19107;SDS011;9686;48.832;9.126;2022-07-25T05:10:25;12.03;;;9.77;;
19107;SDS011;9686;48.832;9.126;2022-07-25T05:12:52;11.97;;;8.73;;
19107;SDS011;9686;48.832;9.126;2022-07-25T05:15:18;10.40;;;9.37;;
19107;SDS011;9686;48.832;9.126;2022-07-25T05:17:43;10.27;;;9.10;;
19107;SDS011;9686;48.832;9.126;2022-07-25T05:20:09;10.50;;;9.30;;
19107;SDS011;9686;48.832;9.126;2022-07-25T05:22:35;10.67;;;9.57;;
19107;SDS011;9686;48.832;9.126;2022-07-25T05:25:00;10.03;;;8.93;;
19107;SDS011;9686;48.832;9.126;2022-07-25T05:27:28;10.57;;;9.57;;
19107;SDS011;9686;48.832;9.126;2022-07-25T05:29:54;10.97;;;8.47;;
19107;SDS011;9686;48.832;9.126;2022-07-25T05:32:19;10.97;;;8.80;;
19107;SDS011;9686;48.832;9.126;2022-07-25T05:34:44;8.63;;;7.93;;
19107;SDS011;9686;48.832;9.126;2022-07-25T05:37:10;8.57;;;7.67;;
19107;SDS011;9686;48.832;9.126;2022-07-25T05:39:35;9.20;;;8.30;;
19107;SDS011;9686;48.832;9.126;2022-07-25T05:42:03;11.13;;;8.47;;
19107;SDS011;9686;48.832;9.126;2022-07-25T05:44:29;10.30;;;8.47;;
19107;SDS011;9686;48.832;9.126;2022-07-25T05:46:54;8.57;;;7.67;;
19107;SDS011;9686;48.832;9.126;2022-07-25T05:49:20;8.40;;;7.60;;
19107;SDS011;9686;48.832;9.126;2022-07-25T05:51:45;9.50;;;7.40;;
19107;SDS011;9686;48.832;9.126;2022-07-25T05:54:10;9.10;;;8.20;;
19107;SDS011;9686;48.832;9.126;2022-07-25T05:56:36;10.93;;;8.33;;
19107;SDS011;9686;48.832;9.126;2022-07-25T05:59:01;12.60;;;8.10;;
19107;SDS011;9686;48.832;9.126;2022-07-25T06:01:26;10.87;;;8.53;;
19107;SDS011;9686;48.832;9.126;2022-07-25T06:03:51;10.43;;;7.67;;
19107;SDS011;9686;48.832;9.126;2022-07-25T06:06:17;9.00;;;8.10;;
19107;SDS011;9686;48.832;9.126;2022-07-25T06:08:42;13.37;;;7.23;;
19107;SDS011;9686;48.832;9.126;2022-07-25T06:11:08;8.47;;;7.30;;
19107;SDS011;9686;48.832;9.126;2022-07-25T06:13:33;8.07;;;6.97;;
19107;SDS011;9686;48.832;9.126;2022-07-25T06:15:58;8.00;;;7.20;;
19107;SDS011;9686;48.832;9.126;2022-07-25T06:18:24;10.07;;;7.33;;
19107;SDS011;9686;48.832;9.126;2022-07-25T06:20:50;9.00;;;7.53;;
19107;SDS011;9686;48.832;9.126;2022-07-25T06:23:16;9.33;;;7.80;;
19107;SDS011;9686;48.832;9.126;2022-07-25T06:25:42;11.10;;;8.07;;
19107;SDS011;9686;48.832;9.126;2022-07-25T06:28:08;10.57;;;8.10;;
19107;SDS011;9686;48.832;9.126;2022-07-25T06:30:33;9.03;;;7.97;;
19107;SDS011;9686;48.832;9.126;2022-07-25T06:32:59;8.67;;;7.80;;
19107;SDS011;9686;48.832;9.126;2022-07-25T06:35:25;8.80;;;7.90;;
19107;SDS011;9686;48.832;9.126;2022-07-25T06:37:50;11.63;;;8.50;;
19107;SDS011;9686;48.832;9.126;2022-07-25T06:40:15;12.30;;;8.20;;
19107;SDS011;9686;48.832;9.126;2022-07-25T06:42:41;9.10;;;8.27;;
19107;SDS011;9686;48.832;9.126;2022-07-25T06:45:08;9.17;;;8.00;;
19107;SDS011;9686;48.832;9.126;2022-07-25T06:47:35;8.47;;;7.60;;
19107;SDS011;9686;48.832;9.126;2022-07-25T06:50:01;9.63;;;7.60;;
19107;SDS011;9686;48.832;9.126;2022-07-25T06:52:28;8.27;;;7.47;;
19107;SDS011;9686;48.832;9.126;2022-07-25T06:54:53;9.83;;;7.43;;
19107;SDS011;9686;48.832;9.126;2022-07-25T06:57:19;7.50;;;6.80;;
19107;SDS011;9686;48.832;9.126;2022-07-25T06:59:44;8.73;;;7.83;;
19107;SDS011;9686;48.832;9.126;2022-07-25T07:02:09;8.73;;;7.83;;
19107;SDS011;9686;48.832;9.126;2022-07-25T07:04:36;10.20;;;7.33;;
19107;SDS011;9686;48.832;9.126;2022-07-25T07:07:02;8.93;;;7.57;;
19107;SDS011;9686;48.832;9.126;2022-07-25T07:09:27;8.90;;;8.00;;
19107;SDS011;9686;48.832;9.126;2022-07-25T07:11:52;11.27;;;8.13;;
19107;SDS011;9686;48.832;9.126;2022-07-25T07:14:18;9.47;;;8.57;;
19107;SDS011;9686;48.832;9.126;2022-07-25T07:16:43;10.20;;;8.80;;
19107;SDS011;9686;48.832;9.126;2022-07-25T07:19:08;8.93;;;8.03;;
19107;SDS011;9686;48.832;9.126;2022-07-25T07:21:38;9.23;;;8.33;;
19107;SDS011;9686;48.832;9.126;2022-07-25T07:24:04;8.97;;;8.10;;
19107;SDS011;9686;48.832;9.126;2022-07-25T07:26:30;9.53;;;8.57;;
19107;SDS011;9686;48.832;9.126;2022-07-25T07:28:56;9.27;;;8.43;;
19107;SDS011;9686;48.832;9.126;2022-07-25T07:31:21;8.87;;;8.03;;
19107;SDS011;9686;48.832;9.126;2022-07-25T07:33:46;12.70;;;8.00;;
19107;SDS011;9686;48.832;9.126;2022-07-25T07:36:12;9.02;;;8.23;;
19107;SDS011;9686;48.832;9.126;2022-07-25T07:38:37;9.95;;;8.07;;
19107;SDS011;9686;48.832;9.126;2022-07-25T07:41:03;10.40;;;8.13;;
19107;SDS011;9686;48.832;9.126;2022-07-25T07:43:29;8.80;;;7.90;;
19107;SDS011;9686;48.832;9.126;2022-07-25T07:45:58;9.18;;;8.38;;
19107;SDS011;9686;48.832;9.126;2022-07-25T07:48:27;8.32;;;7.47;;
19107;SDS011;9686;48.832;9.126;2022-07-25T07:50:55;8.77;;;7.97;;
19107;SDS011;9686;48.832;9.126;2022-07-25T07:53:21;10.20;;;7.75;;
19107;SDS011;9686;48.832;9.126;2022-07-25T07:55:47;8.77;;;7.90;;
19107;SDS011;9686;48.832;9.126;2022-07-25T07:58:18;8.55;;;7.85;;
19107;SDS011;9686;48.832;9.126;2022-07-25T08:00:45;8.40;;;7.55;;
19107;SDS011;9686;48.832;9.126;2022-07-25T08:03:12;8.18;;;7.47;;
19107;SDS011;9686;48.832;9.126;2022-07-25T08:05:41;8.23;;;7.43;;
19107;SDS011;9686;48.832;9.126;2022-07-25T08:08:09;8.77;;;7.97;;
19107;SDS011;9686;48.832;9.126;2022-07-25T08:10:37;8.60;;;7.80;;
19107;SDS011;9686;48.832;9.126;2022-07-25T08:13:12;8.70;;;7.90;;
19107;SDS011;9686;48.832;9.126;2022-07-25T08:15:48;8.52;;;7.75;;
19107;SDS011;9686;48.832;9.126;2022-07-25T08:18:15;7.97;;;7.22;;
19107;SDS011;9686;48.832;9.126;2022-07-25T08:20:41;8.75;;;7.05;;
19107;SDS011;9686;48.832;9.126;2022-07-25T08:23:07;7.85;;;7.15;;
19107;SDS011;9686;48.832;9.126;2022-07-25T08:25:35;8.52;;;7.72;;
19107;SDS011;9686;48.832;9.126;2022-07-25T08:28:00;9.20;;;7.72;;
19107;SDS011;9686;48.832;9.126;2022-07-25T08:30:26;8.32;;;7.50;;
19107;SDS011;9686;48.832;9.126;2022-07-25T08:32:52;8.23;;;7.53;;
19107;SDS011;9686;48.832;9.126;2022-07-25T08:35:24;8.10;;;7.40;;
19107;SDS011;9686;48.832;9.126;2022-07-25T08:37:50;9.23;;;7.45;;
19107;SDS011;9686;48.832;9.126;2022-07-25T08:40:17;8.20;;;7.40;;
19107;SDS011;9686;48.832;9.126;2022-07-25T08:42:44;8.32;;;7.53;;
19107;SDS011;9686;48.832;9.126;2022-07-25T08:45:10;8.30;;;7.50;;
19107;SDS011;9686;48.832;9.126;2022-07-25T08:47:38;7.63;;;6.93;;
19107;SDS011;9686;48.832;9.126;2022-07-25T08:50:05;9.05;;;7.38;;
19107;SDS011;9686;48.832;9.126;2022-07-25T08:52:33;8.20;;;7.40;;
19107;SDS011;9686;48.832;9.126;2022-07-25T08:55:02;8.43;;;7.65;;
19107;SDS011;9686;48.832;9.126;2022-07-25T08:57:29;8.93;;;7.97;;
19107;SDS011;9686;48.832;9.126;2022-07-25T08:59:57;10.80;;;8.45;;
19107;SDS011;9686;48.832;9.126;2022-07-25T09:02:26;8.60;;;7.50;;
19107;SDS011;9686;48.832;9.126;2022-07-25T09:04:56;9.65;;;7.90;;
19107;SDS011;9686;48.832;9.126;2022-07-25T09:07:35;8.88;;;7.97;;
19107;SDS011;9686;48.832;9.126;2022-07-25T09:10:11;8.25;;;7.45;;
19107;SDS011;9686;48.832;9.126;2022-07-25T09:15:25;9.00;;;7.45;;
19107;SDS011;9686;48.832;9.126;2022-07-25T09:17:59;9.32;;;7.50;;
19107;SDS011;9686;48.832;9.126;2022-07-25T09:20:40;7.72;;;7.00;;
19107;SDS011;9686;48.832;9.126;2022-07-25T09:28:28;9.10;;;7.47;;
19107;SDS011;9686;48.832;9.126;2022-07-25T09:30:58;9.90;;;7.72;;
19107;SDS011;9686;48.832;9.126;2022-07-25T09:33:25;8.63;;;7.38;;
19107;SDS011;9686;48.832;9.126;2022-07-25T09:35:52;8.55;;;7.85;;
19107;SDS011;9686;48.832;9.126;2022-07-25T09:38:19;8.93;;;8.02;;
19107;SDS011;9686;48.832;9.126;2022-07-25T09:43:21;8.70;;;7.40;;
19107;SDS011;9686;48.832;9.126;2022-07-25T09:45:51;8.30;;;7.50;;
19107;SDS011;9686;48.832;9.126;2022-07-25T09:48:17;8.27;;;6.95;;
19107;SDS011;9686;48.832;9.126;2022-07-25T09:50:45;8.00;;;7.30;;
19107;SDS011;9686;48.832;9.126;2022-07-25T09:53:10;10.18;;;7.68;;
19107;SDS011;9686;48.832;9.126;2022-07-25T09:55:36;9.02;;;7.97;;
19107;SDS011;9686;48.832;9.126;2022-07-25T09:58:02;8.82;;;8.02;;
19107;SDS011;9686;48.832;9.126;2022-07-25T10:00:27;7.93;;;7.03;;
19107;SDS011;9686;48.832;9.126;2022-07-25T10:05:43;8.02;;;7.32;;
19107;SDS011;9686;48.832;9.126;2022-07-25T10:08:21;7.35;;;6.75;;
19107;SDS011;9686;48.832;9.126;2022-07-25T10:10:48;7.57;;;6.50;;
19107;SDS011;9686;48.832;9.126;2022-07-25T10:13:14;7.22;;;6.60;;
19107;SDS011;9686;48.832;9.126;2022-07-25T10:15:52;7.63;;;6.93;;
19107;SDS011;9686;48.832;9.126;2022-07-25T10:18:19;8.07;;;7.28;;
19107;SDS011;9686;48.832;9.126;2022-07-25T10:20:47;7.35;;;6.65;;
19107;SDS011;9686;48.832;9.126;2022-07-25T10:23:17;7.25;;;6.57;;
19107;SDS011;9686;48.832;9.126;2022-07-25T10:25:59;7.53;;;6.90;;
19107;SDS011;9686;48.832;9.126;2022-07-25T10:28:37;7.70;;;6.70;;
19107;SDS011;9686;48.832;9.126;2022-07-25T10:31:14;7.38;;;6.78;;
19107;SDS011;9686;48.832;9.126;2022-07-25T10:33:42;7.18;;;6.43;;
19107;SDS011;9686;48.832;9.126;2022-07-25T10:36:12;7.18;;;6.53;;
19107;SDS011;9686;48.832;9.126;2022-07-25T10:38:38;7.35;;;5.97;;
19107;SDS011;9686;48.832;9.126;2022-07-25T10:41:06;6.38;;;5.88;;
19107;SDS011;9686;48.832;9.126;2022-07-25T10:43:36;6.07;;;5.57;;
19107;SDS011;9686;48.832;9.126;2022-07-25T10:46:09;6.45;;;5.80;;
19107;SDS011;9686;48.832;9.126;2022-07-25T10:48:36;6.75;;;6.03;;
19107;SDS011;9686;48.832;9.126;2022-07-25T10:51:03;7.22;;;6.53;;
19107;SDS011;9686;48.832;9.126;2022-07-25T10:56:12;10.50;;;6.53;;
19107;SDS011;9686;48.832;9.126;2022-07-25T11:01:23;7.03;;;6.22;;
19107;SDS011;9686;48.832;9.126;2022-07-25T11:03:51;7.90;;;6.38;;
19107;SDS011;9686;48.832;9.126;2022-07-25T11:06:28;6.55;;;6.05;;
19107;SDS011;9686;48.832;9.126;2022-07-25T11:08:59;6.05;;;5.45;;
19107;SDS011;9686;48.832;9.126;2022-07-25T11:11:38;7.22;;;5.03;;
19107;SDS011;9686;48.832;9.126;2022-07-25T11:14:20;5.72;;;5.18;;
19107;SDS011;9686;48.832;9.126;2022-07-25T11:16:53;6.18;;;5.43;;
19107;SDS011;9686;48.832;9.126;2022-07-25T11:21:50;5.78;;;4.97;;
19107;SDS011;9686;48.832;9.126;2022-07-25T11:24:17;5.57;;;5.00;;
19107;SDS011;9686;48.832;9.126;2022-07-25T11:31:50;5.65;;;5.15;;
19107;SDS011;9686;48.832;9.126;2022-07-25T11:34:17;4.75;;;4.45;;
19107;SDS011;9686;48.832;9.126;2022-07-25T11:36:47;5.38;;;4.88;;
19107;SDS011;9686;48.832;9.126;2022-07-25T11:39:12;5.60;;;5.20;;
19107;SDS011;9686;48.832;9.126;2022-07-25T11:41:41;5.00;;;4.60;;
19107;SDS011;9686;48.832;9.126;2022-07-25T11:44:06;5.53;;;5.03;;
19107;SDS011;9686;48.832;9.126;2022-07-25T11:46:40;5.53;;;5.05;;
19107;SDS011;9686;48.832;9.126;2022-07-25T11:49:06;5.60;;;5.00;;
19107;SDS011;9686;48.832;9.126;2022-07-25T11:51:35;5.03;;;4.63;;
19107;SDS011;9686;48.832;9.126;2022-07-25T11:54:06;6.03;;;5.43;;
19107;SDS011;9686;48.832;9.126;2022-07-25T11:56:36;6.88;;;5.75;;
19107;SDS011;9686;48.832;9.126;2022-07-25T11:59:03;5.30;;;4.85;;
19107;SDS011;9686;48.832;9.126;2022-07-25T12:01:35;4.95;;;4.50;;
19107;SDS011;9686;48.832;9.126;2022-07-25T12:04:21;5.50;;;5.07;;
19107;SDS011;9686;48.832;9.126;2022-07-25T12:06:47;6.30;;;4.90;;
19107;SDS011;9686;48.832;9.126;2022-07-25T12:09:16;10.20;;;5.47;;
19107;SDS011;9686;48.832;9.126;2022-07-25T12:11:45;5.65;;;5.15;;
19107;SDS011;9686;48.832;9.126;2022-07-25T12:14:12;5.40;;;5.00;;
19107;SDS011;9686;48.832;9.126;2022-07-25T12:16:37;5.70;;;5.13;;
19107;SDS011;9686;48.832;9.126;2022-07-25T12:19:04;6.07;;;5.55;;
19107;SDS011;9686;48.832;9.126;2022-07-25T12:21:33;5.80;;;5.30;;
19107;SDS011;9686;48.832;9.126;2022-07-25T12:23:59;6.10;;;4.75;;
19107;SDS011;9686;48.832;9.126;2022-07-25T12:26:24;7.00;;;5.57;;
19107;SDS011;9686;48.832;9.126;2022-07-25T12:28:50;6.43;;;5.82;;
19107;SDS011;9686;48.832;9.126;2022-07-25T12:31:15;7.80;;;6.03;;
19107;SDS011;9686;48.832;9.126;2022-07-25T12:33:41;7.40;;;6.65;;
19107;SDS011;9686;48.832;9.126;2022-07-25T12:36:06;6.10;;;4.93;;
19107;SDS011;9686;48.832;9.126;2022-07-25T12:38:32;5.82;;;5.10;;
19107;SDS011;9686;48.832;9.126;2022-07-25T12:40:57;8.35;;;5.85;;
19107;SDS011;9686;48.832;9.126;2022-07-25T12:43:23;8.48;;;5.43;;
19107;SDS011;9686;48.832;9.126;2022-07-25T12:45:48;7.65;;;5.55;;
19107;SDS011;9686;48.832;9.126;2022-07-25T12:48:13;5.65;;;5.15;;
19107;SDS011;9686;48.832;9.126;2022-07-25T12:50:40;5.60;;;5.13;;
19107;SDS011;9686;48.832;9.126;2022-07-25T12:53:08;5.57;;;5.15;;
19107;SDS011;9686;48.832;9.126;2022-07-25T12:55:34;7.65;;;5.45;;
19107;SDS011;9686;48.832;9.126;2022-07-25T12:58:00;6.85;;;5.78;;
19107;SDS011;9686;48.832;9.126;2022-07-25T13:00:25;6.18;;;5.68;;
19107;SDS011;9686;48.832;9.126;2022-07-25T13:02:51;6.47;;;5.88;;
19107;SDS011;9686;48.832;9.126;2022-07-25T13:05:20;6.07;;;5.57;;
19107;SDS011;9686;48.832;9.126;2022-07-25T13:07:46;7.50;;;5.97;;
19107;SDS011;9686;48.832;9.126;2022-07-25T13:10:16;6.90;;;6.40;;
19107;SDS011;9686;48.832;9.126;2022-07-25T13:12:42;6.80;;;6.15;;
19107;SDS011;9686;48.832;9.126;2022-07-25T13:15:07;6.35;;;5.78;;
19107;SDS011;9686;48.832;9.126;2022-07-25T13:17:33;5.95;;;5.45;;
19107;SDS011;9686;48.832;9.126;2022-07-25T13:19:59;9.77;;;5.78;;
19107;SDS011;9686;48.832;9.126;2022-07-25T13:22:24;6.20;;;5.60;;
19107;SDS011;9686;48.832;9.126;2022-07-25T13:24:50;8.98;;;5.43;;
19107;SDS011;9686;48.832;9.126;2022-07-25T13:27:17;5.85;;;5.32;;
19107;SDS011;9686;48.832;9.126;2022-07-25T13:29:44;7.85;;;5.38;;
19107;SDS011;9686;48.832;9.126;2022-07-25T13:32:09;5.70;;;5.18;;
19107;SDS011;9686;48.832;9.126;2022-07-25T13:34:35;7.45;;;4.97;;
19107;SDS011;9686;48.832;9.126;2022-07-25T13:37:00;5.85;;;5.07;;
19107;SDS011;9686;48.832;9.126;2022-07-25T13:39:26;7.80;;;5.35;;
19107;SDS011;9686;48.832;9.126;2022-07-25T13:41:52;7.30;;;5.55;;
19107;SDS011;9686;48.832;9.126;2022-07-25T13:44:17;6.13;;;5.53;;
19107;SDS011;9686;48.832;9.126;2022-07-25T13:46:43;6.10;;;5.60;;
19107;SDS011;9686;48.832;9.126;2022-07-25T13:49:09;7.00;;;5.47;;
19107;SDS011;9686;48.832;9.126;2022-07-25T13:51:35;6.00;;;5.40;;
19107;SDS011;9686;48.832;9.126;2022-07-25T13:54:01;5.53;;;5.03;;
19107;SDS011;9686;48.832;9.126;2022-07-25T13:56:28;7.28;;;5.55;;
19107;SDS011;9686;48.832;9.126;2022-07-25T13:58:53;6.70;;;5.50;;
19107;SDS011;9686;48.832;9.126;2022-07-25T14:01:18;6.38;;;5.65;;
19107;SDS011;9686;48.832;9.126;2022-07-25T14:03:44;7.30;;;5.85;;
19107;SDS011;9686;48.832;9.126;2022-07-25T14:06:09;7.00;;;6.22;;
19107;SDS011;9686;48.832;9.126;2022-07-25T14:08:36;6.80;;;6.00;;
19107;SDS011;9686;48.832;9.126;2022-07-25T14:11:03;7.13;;;6.32;;
19107;SDS011;9686;48.832;9.126;2022-07-25T14:13:29;7.88;;;6.47;;
19107;SDS011;9686;48.832;9.126;2022-07-25T14:15:56;7.90;;;7.15;;
19107;SDS011;9686;48.832;9.126;2022-07-25T14:18:22;8.30;;;6.90;;
19107;SDS011;9686;48.832;9.126;2022-07-25T14:20:48;7.65;;;6.90;;
19107;SDS011;9686;48.832;9.126;2022-07-25T14:23:14;7.25;;;6.53;;
19107;SDS011;9686;48.832;9.126;2022-07-25T14:25:40;9.43;;;6.75;;
19107;SDS011;9686;48.832;9.126;2022-07-25T14:28:05;8.32;;;6.35;;
19107;SDS011;9686;48.832;9.126;2022-07-25T14:30:30;11.65;;;7.40;;
19107;SDS011;9686;48.832;9.126;2022-07-25T14:32:55;8.27;;;7.03;;
19107;SDS011;9686;48.832;9.126;2022-07-25T14:35:21;7.20;;;6.53;;
19107;SDS011;9686;48.832;9.126;2022-07-25T14:37:46;7.93;;;7.07;;
19107;SDS011;9686;48.832;9.126;2022-07-25T14:40:12;7.18;;;6.38;;
19107;SDS011;9686;48.832;9.126;2022-07-25T14:45:22;7.60;;;7.00;;
19107;SDS011;9686;48.832;9.126;2022-07-25T14:47:48;7.53;;;6.68;;
19107;SDS011;9686;48.832;9.126;2022-07-25T14:50:13;7.45;;;6.75;;
19107;SDS011;9686;48.832;9.126;2022-07-25T14:52:38;8.18;;;7.40;;
19107;SDS011;9686;48.832;9.126;2022-07-25T14:55:04;7.40;;;6.70;;
19107;SDS011;9686;48.832;9.126;2022-07-25T14:57:30;7.32;;;6.63;;
19107;SDS011;9686;48.832;9.126;2022-07-25T14:59:55;7.45;;;6.80;;
19107;SDS011;9686;48.832;9.126;2022-07-25T15:02:22;7.07;;;6.22;;
19107;SDS011;9686;48.832;9.126;2022-07-25T15:04:47;6.90;;;6.22;;
19107;SDS011;9686;48.832;9.126;2022-07-25T15:07:12;7.15;;;6.50;;
19107;SDS011;9686;48.832;9.126;2022-07-25T15:09:38;7.93;;;6.55;;
19107;SDS011;9686;48.832;9.126;2022-07-25T15:12:03;8.73;;;6.50;;
19107;SDS011;9686;48.832;9.126;2022-07-25T15:14:29;6.85;;;6.05;;
19107;SDS011;9686;48.832;9.126;2022-07-25T15:16:54;7.18;;;6.57;;
19107;SDS011;9686;48.832;9.126;2022-07-25T15:19:20;7.00;;;6.40;;